Time,TemperatureF,DewpointF,PressureIn,WindDirection,WindDirectionDegrees,WindSpeedMPH,WindSpeedGustMPH,Humidity,HourlyPrecipIn,Conditions,Clouds,dailyrainin,SoftwareType,DateUTC
2013-03-10 00:00:00,51.9,43.0,30.29,East,86,0.0,3.0,71,0.00,,,0.00,weatherlink.com 1.10,2013-03-10 08:00:00,
2013-03-10 00:15:00,51.4,42.0,30.29,NE,52,2.0,3.0,71,0.00,,,0.00,weatherlink.com 1.10,2013-03-10 08:15:00,
2013-03-10 00:30:00,51.5,41.0,30.29,ESE,108,0.0,1.0,68,0.00,,,0.00,weatherlink.com 1.10,2013-03-10 08:30:00,
2013-03-10 00:45:00,51.9,41.0,30.28,ENE,66,3.0,3.0,67,0.00,,,0.00,weatherlink.com 1.10,2013-03-10 08:45:00,
2013-03-10 01:01:00,52.0,41.0,30.29,ENE,63,1.0,3.0,66,0.00,,,0.00,weatherlink.com 1.10,2013-03-10 09:01:00,
2013-03-10 01:15:00,51.8,41.0,30.29,ENE,60,3.0,5.0,66,0.00,,,0.00,weatherlink.com 1.10,2013-03-10 09:15:00,
2013-03-10 01:30:00,51.7,41.0,30.30,North,357,1.0,4.0,66,0.00,,,0.00,weatherlink.com 1.10,2013-03-10 09:30:00,
2013-03-10 01:45:00,51.5,41.0,30.30,NE,56,0.0,2.0,67,0.00,,,0.00,weatherlink.com 1.10,2013-03-10 09:45:00,
2013-03-10 03:00:00,49.7,43.0,30.30,SSE,153,0.0,0.0,78,0.00,,,0.00,weatherlink.com 1.10,2013-03-10 10:00:00,
2013-03-10 03:16:00,48.8,45.0,30.29,East,98,0.0,3.0,85,0.00,,,0.00,weatherlink.com 1.10,2013-03-10 10:16:00,
2013-03-10 03:31:00,48.1,42.0,30.29,South,175,0.0,0.0,78,0.00,,,0.00,weatherlink.com 1.10,2013-03-10 10:31:00,
2013-03-10 03:46:00,48.2,43.0,30.29,NE,52,0.0,0.0,81,0.00,,,0.00,weatherlink.com 1.10,2013-03-10 10:46:00,
2013-03-10 04:01:00,48.4,42.0,30.28,East,79,0.0,2.0,78,0.00,,,0.00,weatherlink.com 1.10,2013-03-10 11:01:00,
2013-03-10 04:16:00,48.2,41.0,30.29,South,186,0.0,0.0,75,0.00,,,0.00,weatherlink.com 1.10,2013-03-10 11:16:00,
2013-03-10 04:31:00,48.3,44.0,30.28,South,186,0.0,3.0,84,0.00,,,0.00,weatherlink.com 1.10,2013-03-10 11:31:00,
2013-03-10 04:46:00,47.6,44.0,30.29,SE,140,0.0,0.0,87,0.00,,,0.00,weatherlink.com 1.10,2013-03-10 11:46:00,
2013-03-10 05:01:00,47.3,43.0,30.29,ESE,117,0.0,2.0,85,0.00,,,0.00,weatherlink.com 1.10,2013-03-10 12:01:00,
2013-03-10 05:16:00,48.1,42.0,30.28,East,89,4.0,5.0,78,0.00,,,0.00,weatherlink.com 1.10,2013-03-10 12:16:00,
2013-03-10 05:31:00,49.5,41.0,30.29,NE,51,0.0,3.0,72,0.00,,,0.00,weatherlink.com 1.10,2013-03-10 12:31:00,
2013-03-10 05:46:00,49.8,40.0,30.29,ENE,73,3.0,3.0,70,0.00,,,0.00,weatherlink.com 1.10,2013-03-10 12:46:00,
2013-03-10 06:01:00,48.5,43.0,30.30,SSE,155,0.0,3.0,81,0.00,,,0.00,weatherlink.com 1.10,2013-03-10 13:01:00,
2013-03-10 06:16:00,47.4,43.0,30.30,East,98,0.0,2.0,86,0.00,,,0.00,weatherlink.com 1.10,2013-03-10 13:16:00,
2013-03-10 06:31:00,46.4,43.0,30.30,East,99,0.0,0.0,87,0.00,,,0.00,weatherlink.com 1.10,2013-03-10 13:31:00,
2013-03-10 06:46:00,46.5,44.0,30.30,SE,136,0.0,4.0,90,0.00,,,0.00,weatherlink.com 1.10,2013-03-10 13:46:00,
2013-03-10 07:01:00,45.4,42.0,30.30,East,100,0.0,1.0,89,0.00,,,0.00,weatherlink.com 1.10,2013-03-10 14:01:00,
2013-03-10 07:16:00,45.1,41.0,30.30,East,86,1.0,3.0,85,0.00,,,0.00,weatherlink.com 1.10,2013-03-10 14:16:00,
2013-03-10 07:31:00,45.0,40.0,30.30,ENE,78,0.0,2.0,82,0.00,,,0.00,weatherlink.com 1.10,2013-03-10 14:31:00,
2013-03-10 07:46:00,45.6,41.0,30.31,East,79,0.0,1.0,83,0.00,,,0.00,weatherlink.com 1.10,2013-03-10 14:46:00,
2013-03-10 08:01:00,46.4,42.0,30.32,East,84,0.0,0.0,85,0.00,,,0.00,weatherlink.com 1.10,2013-03-10 15:01:00,
2013-03-10 08:16:00,47.4,44.0,30.32,East,100,2.0,2.0,87,0.00,,,0.00,weatherlink.com 1.10,2013-03-10 15:16:00,
2013-03-10 08:31:00,49.2,46.0,30.32,SE,128,0.0,1.0,87,0.00,,,0.00,weatherlink.com 1.10,2013-03-10 15:31:00,
2013-03-10 08:46:00,51.3,47.0,30.33,SE,129,0.0,0.0,84,0.00,,,0.00,weatherlink.com 1.10,2013-03-10 15:46:00,
2013-03-10 09:01:00,52.8,48.0,30.34,SW,214,0.0,0.0,83,0.00,,,0.00,weatherlink.com 1.10,2013-03-10 16:01:00,
2013-03-10 09:16:00,54.8,49.0,30.34,SW,214,0.0,0.0,80,0.00,,,0.00,weatherlink.com 1.10,2013-03-10 16:16:00,
2013-03-10 09:31:00,55.4,48.0,30.34,WSW,246,0.0,0.0,75,0.00,,,0.00,weatherlink.com 1.10,2013-03-10 16:31:00,
2013-03-10 09:46:00,55.1,49.0,30.34,SW,235,1.0,1.0,79,0.00,,,0.00,weatherlink.com 1.10,2013-03-10 16:46:00,
2013-03-10 10:01:00,56.2,49.0,30.33,SSW,195,1.0,2.0,76,0.00,,,0.00,weatherlink.com 1.10,2013-03-10 17:01:00,
2013-03-10 10:16:00,56.1,48.0,30.33,WNW,296,2.0,4.0,73,0.00,,,0.00,weatherlink.com 1.10,2013-03-10 17:16:00,
2013-03-10 10:31:00,57.0,48.0,30.33,SSW,205,1.0,5.0,73,0.00,,,0.00,weatherlink.com 1.10,2013-03-10 17:31:00,
2013-03-10 10:46:00,56.3,49.0,30.33,SSW,193,2.0,4.0,76,0.00,,,0.00,weatherlink.com 1.10,2013-03-10 17:46:00,
2013-03-10 11:01:00,56.4,49.0,30.33,SW,214,0.0,4.0,75,0.00,,,0.00,weatherlink.com 1.10,2013-03-10 18:01:00,
2013-03-10 11:16:00,56.8,49.0,30.32,NW,305,1.0,4.0,75,0.00,,,0.00,weatherlink.com 1.10,2013-03-10 18:16:00,
2013-03-10 11:32:00,58.7,50.0,30.32,SW,235,0.0,4.0,72,0.00,,,0.00,weatherlink.com 1.10,2013-03-10 18:32:00,
2013-03-10 11:47:00,59.7,49.0,30.32,WSW,252,4.0,5.0,69,0.00,,,0.00,weatherlink.com 1.10,2013-03-10 18:47:00,
2013-03-10 12:02:00,59.5,50.0,30.32,SW,232,4.0,6.0,70,0.00,,,0.00,weatherlink.com 1.10,2013-03-10 19:02:00,
2013-03-10 12:17:00,60.0,49.0,30.32,SSW,198,0.0,6.0,68,0.00,,,0.00,weatherlink.com 1.10,2013-03-10 19:17:00,
2013-03-10 12:32:00,61.0,49.0,30.31,SW,221,2.0,5.0,65,0.00,,,0.00,weatherlink.com 1.10,2013-03-10 19:32:00,
2013-03-10 12:47:00,61.5,49.0,30.30,SSW,211,3.0,6.0,64,0.00,,,0.00,weatherlink.com 1.10,2013-03-10 19:47:00,
2013-03-10 13:02:00,61.3,48.0,30.30,SSW,209,3.0,7.0,62,0.00,,,0.00,weatherlink.com 1.10,2013-03-10 20:02:00,
2013-03-10 13:17:00,61.2,47.0,30.30,SSW,211,5.0,8.0,60,0.00,,,0.00,weatherlink.com 1.10,2013-03-10 20:17:00,
2013-03-10 13:32:00,61.5,45.0,30.29,WSW,242,8.0,8.0,56,0.00,,,0.00,weatherlink.com 1.10,2013-03-10 20:32:00,
2013-03-10 14:02:00,61.9,44.0,30.28,SSW,212,2.0,10.0,52,0.00,,,0.00,weatherlink.com 1.10,2013-03-10 21:02:00,
2013-03-10 14:17:00,62.6,46.0,30.27,SSW,201,6.0,8.0,54,0.00,,,0.00,weatherlink.com 1.10,2013-03-10 21:17:00,
2013-03-10 14:32:00,62.8,45.0,30.27,SE,139,1.0,8.0,53,0.00,,,0.00,weatherlink.com 1.10,2013-03-10 21:32:00,
2013-03-10 14:47:00,63.3,45.0,30.27,SSW,195,3.0,8.0,52,0.00,,,0.00,weatherlink.com 1.10,2013-03-10 21:47:00,
2013-03-10 15:02:00,64.1,45.0,30.27,SSE,160,5.0,8.0,51,0.00,,,0.00,weatherlink.com 1.10,2013-03-10 22:02:00,
2013-03-10 15:17:00,64.9,45.0,30.27,SSE,155,8.0,8.0,49,0.00,,,0.00,weatherlink.com 1.10,2013-03-10 22:17:00,
2013-03-10 15:32:00,63.5,45.0,30.27,SSW,203,4.0,9.0,51,0.00,,,0.00,weatherlink.com 1.10,2013-03-10 22:32:00,
2013-03-10 15:47:00,63.6,45.0,30.27,SW,215,7.0,8.0,52,0.00,,,0.00,weatherlink.com 1.10,2013-03-10 22:47:00,
2013-03-10 16:02:00,62.7,47.0,30.26,SSW,204,6.0,9.0,56,0.00,,,0.00,weatherlink.com 1.10,2013-03-10 23:02:00,
2013-03-10 16:17:00,63.5,45.0,30.26,SW,217,7.0,8.0,51,0.00,,,0.00,weatherlink.com 1.10,2013-03-10 23:17:00,
2013-03-10 16:32:00,64.6,44.0,30.26,SSE,162,2.0,8.0,47,0.00,,,0.00,weatherlink.com 1.10,2013-03-10 23:32:00,
2013-03-10 16:47:00,63.5,45.0,30.25,SW,215,6.0,9.0,52,0.00,,,0.00,weatherlink.com 1.10,2013-03-10 23:47:00,
2013-03-10 17:02:00,63.6,46.0,30.25,South,186,2.0,8.0,54,0.00,,,0.00,weatherlink.com 1.10,2013-03-11 00:02:00,
2013-03-10 17:17:00,62.0,47.0,30.25,ESE,122,5.0,10.0,58,0.00,,,0.00,weatherlink.com 1.10,2013-03-11 00:17:00,
2013-03-10 17:32:00,61.9,47.0,30.24,SSE,165,6.0,11.0,58,0.00,,,0.00,weatherlink.com 1.10,2013-03-11 00:32:00,
2013-03-10 17:47:00,61.6,45.0,30.24,SE,128,7.0,10.0,54,0.00,,,0.00,weatherlink.com 1.10,2013-03-11 00:47:00,
2013-03-10 18:02:00,61.5,44.0,30.24,East,93,4.0,11.0,53,0.00,,,0.00,weatherlink.com 1.10,2013-03-11 01:02:00,
2013-03-10 18:17:00,60.7,43.0,30.24,South,174,4.0,10.0,53,0.00,,,0.00,weatherlink.com 1.10,2013-03-11 01:17:00,
2013-03-10 18:32:00,60.1,44.0,30.24,WSW,252,3.0,7.0,56,0.00,,,0.00,weatherlink.com 1.10,2013-03-11 01:32:00,
2013-03-10 18:47:00,56.8,47.0,30.24,ESE,115,7.0,11.0,70,0.00,,,0.00,weatherlink.com 1.10,2013-03-11 01:47:00,
2013-03-10 19:02:00,54.3,48.0,30.24,South,169,5.0,10.0,78,0.00,,,0.00,weatherlink.com 1.10,2013-03-11 02:02:00,
2013-03-10 19:17:00,53.1,48.0,30.25,East,97,4.0,7.0,82,0.00,,,0.00,weatherlink.com 1.10,2013-03-11 02:17:00,
2013-03-10 19:32:00,52.2,47.0,30.25,SSE,156,6.0,9.0,83,0.00,,,0.00,weatherlink.com 1.10,2013-03-11 02:32:00,
2013-03-10 19:47:00,52.0,47.0,30.26,ESE,117,2.0,6.0,83,0.00,,,0.00,weatherlink.com 1.10,2013-03-11 02:47:00,
2013-03-10 20:02:00,51.7,46.0,30.26,ESE,108,2.0,6.0,82,0.00,,,0.00,weatherlink.com 1.10,2013-03-11 03:02:00,
2013-03-10 20:17:00,51.9,45.0,30.25,SE,145,3.0,5.0,78,0.00,,,0.00,weatherlink.com 1.10,2013-03-11 03:17:00,
2013-03-10 20:34:00,52.2,45.0,30.25,ESE,119,2.0,4.0,75,0.00,,,0.00,weatherlink.com 1.10,2013-03-11 03:34:00,
2013-03-10 20:48:00,52.1,44.0,30.25,ESE,115,0.0,5.0,73,0.00,,,0.00,weatherlink.com 1.10,2013-03-11 03:48:00,
2013-03-10 21:03:00,51.4,44.0,30.24,SSE,155,2.0,6.0,77,0.00,,,0.00,weatherlink.com 1.10,2013-03-11 04:03:00,
2013-03-10 21:18:00,50.9,45.0,30.24,SE,134,4.0,7.0,80,0.00,,,0.00,weatherlink.com 1.10,2013-03-11 04:18:00,
2013-03-10 21:33:00,50.6,46.0,30.25,SSE,162,6.0,7.0,84,0.00,,,0.00,weatherlink.com 1.10,2013-03-11 04:33:00,
2013-03-10 21:48:00,50.2,46.0,30.26,SSW,206,2.0,9.0,86,0.00,,,0.00,weatherlink.com 1.10,2013-03-11 04:48:00,
2013-03-10 22:03:00,49.9,46.0,30.25,East,97,7.0,7.0,85,0.00,,,0.00,weatherlink.com 1.10,2013-03-11 05:03:00,
2013-03-10 22:18:00,49.7,45.0,30.25,South,186,0.0,3.0,84,0.00,,,0.00,weatherlink.com 1.10,2013-03-11 05:18:00,
2013-03-10 22:33:00,49.3,45.0,30.25,South,170,3.0,6.0,86,0.00,,,0.00,weatherlink.com 1.10,2013-03-11 05:33:00,
2013-03-10 22:48:00,48.8,45.0,30.25,SSE,161,2.0,5.0,87,0.00,,,0.00,weatherlink.com 1.10,2013-03-11 05:48:00,
2013-03-10 23:03:00,48.6,46.0,30.26,SE,146,4.0,5.0,89,0.00,,,0.00,weatherlink.com 1.10,2013-03-11 06:03:00,
2013-03-10 23:18:00,48.5,46.0,30.25,SSE,159,5.0,8.0,91,0.00,,,0.00,weatherlink.com 1.10,2013-03-11 06:18:00,
2013-03-10 23:33:00,48.3,46.0,30.26,ESE,121,3.0,8.0,92,0.00,,,0.00,weatherlink.com 1.10,2013-03-11 06:33:00,
2013-03-10 23:48:00,48.2,46.0,30.25,ESE,115,2.0,6.0,92,0.00,,,0.00,weatherlink.com 1.10,2013-03-11 06:48:00,